الصفحة الرئيسية
صور السواتل توقعات الطقس لمدة 10 يوممناخالطقس البحري أعاصير برق مطارأسئلة وأجوبة الرسائل الإخبارية نبذة
طقس : أوروبا أفريقيا أمريكا الشمالية أمريكا الجنوبية آسيا أستراليا-أوقيانوسيا أخرى
لغات جهة اتصال

مدينة همدان, إيران

دائرة عرض: 34-52-05N, خط طول: 048-33-08E, ارتفاع: 1757 متر


METAR: OIHH 291551Z 09008KT 9999 SCT040 27/05 Q1019
TAF: مفقودة

زمن: 03:56 (23:26 UTC)

مراقبة الطقس الحالي

تاريخ ووقت الإصدار 7ساعات و 35 دقيقة قبل الساعة 15:51UTC
ريح 8 عقدة من الشرق
درجة الحرارة 27°درجة مئوية
الرطوبة 24%
ضغط 1019 hPa
الرؤية 10 كم أو أكثر
غيوم متفرقة على ارتفاع 4000 قدم

تغيير وحدة
المعلومات الواردة في هذا الموقع يخضع لـإخلاء مسؤولية
طقس : أوروبا أفريقيا أمريكا الشمالية أمريكا الجنوبية آسيا أستراليا-أوقيانوسيا أخرى
صور السواتل توقعات الطقس لمدة 10 يوممناخالطقس البحري أعاصير برق مطارأسئلة وأجوبة لغات جهة اتصال الرسائل الإخبارية نبذة